createdAt,value
2023-01-30T00:00:32.573Z,97
2023-01-30T00:05:31.810Z,97
2023-01-30T00:10:31.950Z,97
2023-01-30T00:15:32.371Z,97
2023-01-30T00:20:32.453Z,97
2023-01-30T00:25:32.750Z,97
2023-01-30T00:30:32.250Z,97
2023-01-30T00:35:31.605Z,97
2023-01-30T00:40:31.810Z,97
2023-01-30T00:45:32.004Z,97
2023-01-30T00:50:32.129Z,97
2023-01-30T00:55:32.263Z,97
2023-01-30T01:00:32.414Z,97
2023-01-30T01:05:32.472Z,97
2023-01-30T01:10:31.833Z,97
2023-01-30T01:15:32.077Z,97
2023-01-30T01:20:32.175Z,97
2023-01-30T01:25:32.298Z,97
2023-01-30T01:30:32.617Z,97
2023-01-30T01:35:31.940Z,97
2023-01-30T01:40:32.220Z,97
2023-01-30T01:45:31.769Z,97
2023-01-30T01:50:32.481Z,97
2023-01-30T01:55:32.534Z,97
2023-01-30T02:00:32.173Z,97
2023-01-30T02:05:31.704Z,97
2023-01-30T02:10:32.182Z,97
2023-01-30T02:15:31.767Z,97
2023-01-30T02:20:32.299Z,97
2023-01-30T02:25:32.390Z,97
2023-01-30T02:30:31.832Z,97
2023-01-30T02:35:32.446Z,97
2023-01-30T02:40:32.591Z,98
2023-01-30T02:45:31.994Z,98
2023-01-30T02:50:32.108Z,97
2023-01-30T02:55:32.560Z,97
2023-01-30T03:00:31.756Z,98
2023-01-30T03:05:32.636Z,98
2023-01-30T03:10:32.616Z,98
2023-01-30T03:15:32.042Z,98
2023-01-30T03:20:32.233Z,98
2023-01-30T03:25:32.196Z,98
2023-01-30T03:30:32.608Z,98
2023-01-30T03:35:31.923Z,98
2023-01-30T03:40:32.455Z,98
2023-01-30T03:45:32.103Z,98
2023-01-30T03:50:31.805Z,98
2023-01-30T03:55:32.126Z,98
2023-01-30T04:00:32.590Z,98
2023-01-30T04:05:32.496Z,98
2023-01-30T04:10:31.845Z,98
2023-01-30T04:15:32.047Z,98
2023-01-30T04:20:32.261Z,98
2023-01-30T04:25:31.964Z,98
2023-01-30T04:30:32.165Z,98
2023-01-30T04:35:32.354Z,98
2023-01-30T04:40:32.552Z,98
2023-01-30T04:45:32.811Z,98
2023-01-30T04:50:32.037Z,98
2023-01-30T04:55:32.256Z,98
2023-01-30T05:00:32.407Z,98
2023-01-30T05:05:31.975Z,98
2023-01-30T05:10:32.129Z,98
2023-01-30T05:15:32.242Z,98
2023-01-30T05:20:32.377Z,98
2023-01-30T05:25:31.963Z,98
2023-01-30T05:30:32.192Z,98
2023-01-30T05:35:32.213Z,98
2023-01-30T05:40:32.587Z,98
2023-01-30T05:45:32.509Z,98
2023-01-30T05:50:32.582Z,98
2023-01-30T05:55:32.605Z,98
2023-01-30T06:00:32.795Z,98
2023-01-30T06:05:31.892Z,98
2023-01-30T06:10:31.943Z,98
2023-01-30T06:15:32.110Z,98
2023-01-30T06:20:31.926Z,98
2023-01-30T06:25:32.205Z,98
2023-01-30T06:30:32.417Z,98
2023-01-30T06:35:32.576Z,98
2023-01-30T06:40:32.281Z,98
2023-01-30T06:45:32.429Z,98
2023-01-30T06:50:32.478Z,98
2023-01-30T06:55:32.488Z,98
2023-01-30T07:00:32.614Z,98
2023-01-30T07:05:32.726Z,98
2023-01-30T07:10:32.881Z,98
2023-01-30T07:15:31.835Z,98
2023-01-30T07:20:31.944Z,98
2023-01-30T07:25:32.490Z,98
2023-01-30T07:30:32.320Z,98
2023-01-30T07:35:31.882Z,98
2023-01-30T07:40:32.478Z,98
2023-01-30T07:45:32.581Z,98
2023-01-30T07:50:32.579Z,98
2023-01-30T07:55:32.772Z,98
2023-01-30T08:00:32.796Z,98
2023-01-30T08:05:31.996Z,98
2023-01-30T08:10:32.449Z,98
2023-01-30T08:15:32.612Z,98
2023-01-30T08:20:32.707Z,97
2023-01-30T08:25:32.838Z,97
2023-01-30T08:30:32.798Z,97
2023-01-30T08:35:32.723Z,97
2023-01-30T08:40:32.790Z,97
2023-01-30T08:45:31.927Z,97
2023-01-30T08:50:32.081Z,97
2023-01-30T08:55:32.233Z,97
2023-01-30T09:00:32.504Z,97
2023-01-30T09:06:07.084Z,97
2023-01-30T09:10:32.413Z,97
2023-01-30T09:15:32.497Z,97
2023-01-30T09:20:32.689Z,97
2023-01-30T09:25:32.050Z,97
2023-01-30T09:30:32.634Z,97
2023-01-30T09:35:32.384Z,97
2023-01-30T09:40:32.856Z,96
2023-01-30T09:45:31.959Z,96
2023-01-30T09:50:32.375Z,96
2023-01-30T09:55:32.009Z,96
2023-01-30T10:00:32.263Z,95
2023-01-30T10:05:32.561Z,95
2023-01-30T10:10:32.630Z,93
2023-01-30T10:15:32.866Z,93
2023-01-30T10:20:32.117Z,93
2023-01-30T10:25:33.311Z,93
2023-01-30T10:30:32.853Z,93
2023-01-30T10:35:31.966Z,93
2023-01-30T10:40:32.212Z,92
2023-01-30T10:45:32.256Z,92
2023-01-30T10:50:32.821Z,92
2023-01-30T10:55:37.603Z,92
2023-01-30T11:00:32.649Z,91
2023-01-30T11:05:32.101Z,91
2023-01-30T11:10:32.227Z,89
2023-01-30T11:15:32.310Z,89
2023-01-30T11:20:32.293Z,90
2023-01-30T11:25:32.388Z,90
2023-01-30T11:30:32.477Z,91
2023-01-30T11:35:32.588Z,91
2023-01-30T11:40:33.017Z,92
2023-01-30T11:45:32.084Z,92
2023-01-30T11:50:36.394Z,93
2023-01-30T11:55:32.667Z,93
2023-01-30T12:00:33.023Z,95
2023-01-30T12:05:32.181Z,95
2023-01-30T12:10:32.409Z,95
2023-01-30T12:15:32.567Z,95
2023-01-30T12:20:32.757Z,96
2023-01-30T12:25:32.973Z,96
2023-01-30T12:30:32.512Z,96
2023-01-30T12:35:32.821Z,96
2023-01-30T12:40:32.826Z,95
2023-01-30T12:45:32.364Z,95
2023-01-30T12:50:32.493Z,95
2023-01-30T12:55:32.571Z,95
2023-01-30T13:00:32.886Z,96
2023-01-30T13:05:33.046Z,96
2023-01-30T13:10:32.253Z,96
2023-01-30T13:15:32.217Z,96
2023-01-30T13:20:32.325Z,96
2023-01-30T13:25:32.363Z,96
2023-01-30T13:30:32.451Z,95
2023-01-30T13:35:32.560Z,95
2023-01-30T13:40:32.868Z,95
2023-01-30T13:45:32.468Z,95
2023-01-30T13:50:32.502Z,95
2023-01-30T13:55:32.745Z,95
2023-01-30T14:00:33.003Z,95
2023-01-30T14:05:43.481Z,95
2023-01-30T14:10:32.675Z,95
2023-01-30T14:15:32.435Z,95
2023-01-30T14:20:32.513Z,95
2023-01-30T14:25:32.588Z,95
2023-01-30T14:30:32.599Z,94
2023-01-30T14:35:32.610Z,94
2023-01-30T14:40:32.689Z,94
2023-01-30T14:45:32.813Z,94
2023-01-30T14:50:33.099Z,94
2023-01-30T14:55:32.365Z,94
2023-01-30T15:00:32.884Z,93
2023-01-30T15:05:32.640Z,93
2023-01-30T15:10:33.126Z,92
2023-01-30T15:15:32.975Z,92
2023-01-30T15:20:32.463Z,90
2023-01-30T15:25:32.616Z,90
2023-01-30T15:30:32.546Z,88
2023-01-30T15:35:32.107Z,88
2023-01-30T15:40:32.903Z,88
2023-01-30T15:45:32.714Z,88
2023-01-30T15:50:32.601Z,88
2023-01-30T15:55:32.763Z,88
2023-01-30T16:00:32.938Z,87
2023-01-30T16:05:32.390Z,87
2023-01-30T16:10:33.110Z,85
2023-01-30T16:15:32.796Z,85
2023-01-30T16:20:32.301Z,85
2023-01-30T16:25:32.467Z,85
2023-01-30T16:30:32.774Z,85
2023-01-30T16:35:32.466Z,85
2023-01-30T16:40:32.606Z,84
2023-01-30T16:45:32.806Z,84
2023-01-30T16:50:32.899Z,85
2023-01-30T16:55:32.711Z,85
2023-01-30T17:00:32.751Z,86
2023-01-30T17:05:32.892Z,86
2023-01-30T17:10:33.106Z,86
2023-01-30T17:15:33.023Z,86
2023-01-30T17:20:32.316Z,86
2023-01-30T17:25:32.346Z,86
2023-01-30T17:30:32.518Z,86
2023-01-30T17:35:32.697Z,86
2023-01-30T17:40:32.873Z,87
2023-01-30T17:45:32.958Z,87
2023-01-30T17:50:33.127Z,87
2023-01-30T17:55:32.966Z,87
2023-01-30T18:00:33.072Z,86
2023-01-30T18:05:32.440Z,86
2023-01-30T18:10:32.636Z,86
2023-01-30T18:15:32.672Z,86
2023-01-30T18:20:32.846Z,85
2023-01-30T18:25:33.024Z,85
2023-01-30T18:30:33.293Z,85
2023-01-30T18:35:32.995Z,85
2023-01-30T18:40:33.385Z,85
2023-01-30T18:45:32.440Z,85
2023-01-30T18:50:32.476Z,84
2023-01-30T18:55:32.502Z,84
2023-01-30T19:00:32.610Z,84
2023-01-30T19:05:32.761Z,84
2023-01-30T19:10:32.984Z,83
2023-01-30T19:15:33.133Z,83
2023-01-30T19:20:33.293Z,83
2023-01-30T19:25:32.473Z,83
2023-01-30T19:30:32.577Z,83
2023-01-30T19:35:32.681Z,83
2023-01-30T19:40:32.991Z,82
2023-01-30T19:45:33.179Z,82
2023-01-30T19:50:33.281Z,82
2023-01-30T19:55:32.472Z,82
2023-01-30T20:00:32.624Z,82
2023-01-30T20:05:32.729Z,82
2023-01-30T20:10:32.966Z,82
2023-01-30T20:15:33.004Z,82
2023-01-30T20:20:33.203Z,82
2023-01-30T20:25:32.573Z,82
2023-01-30T20:30:33.180Z,82
2023-01-30T20:35:34.608Z,82
2023-01-30T20:40:32.640Z,82
2023-01-30T20:45:32.696Z,82
2023-01-30T20:50:32.969Z,84
2023-01-30T20:55:33.159Z,84
2023-01-30T21:00:33.301Z,85
2023-01-30T21:05:32.385Z,85
2023-01-30T21:10:32.868Z,86
2023-01-30T21:15:32.969Z,86
2023-01-30T21:20:33.030Z,86
2023-01-30T21:25:33.173Z,86
2023-01-30T21:30:32.857Z,85
2023-01-30T21:35:32.844Z,85
2023-01-30T21:40:33.088Z,85
2023-01-30T21:45:33.152Z,85
2023-01-30T21:50:33.263Z,85
2023-01-30T21:55:32.419Z,85
2023-01-30T22:00:33.055Z,85
2023-01-30T22:05:33.082Z,85
2023-01-30T22:10:32.479Z,86
2023-01-30T22:15:32.491Z,86
2023-01-30T22:20:32.575Z,86
2023-01-30T22:25:32.980Z,86
2023-01-30T22:30:33.076Z,86
2023-01-30T22:35:32.389Z,86
2023-01-30T22:40:32.413Z,86
2023-01-30T22:45:32.388Z,86
2023-01-30T22:50:32.388Z,86
2023-01-30T22:55:32.595Z,86
2023-01-30T23:00:32.743Z,87
2023-01-30T23:05:32.934Z,87
2023-01-30T23:10:33.200Z,87
2023-01-30T23:15:33.343Z,87
2023-01-30T23:20:32.531Z,86
2023-01-30T23:25:32.637Z,86
2023-01-30T23:30:32.869Z,86
2023-01-30T23:35:33.281Z,86
2023-01-30T23:40:32.570Z,86
2023-01-30T23:45:32.635Z,86
2023-01-30T23:55:33.472Z,86
